Time;durP1;ratioP1;P1;durP2;ratioP2;P2;SDS_P1;SDS_P2;PMS_P1;PMS_P2;Temp;Humidity;BMP_temperature;BMP_pressure;BME280_temperature;BME280_humidity;BME280_pressure;Samples;Min_cycle;Max_cycle;Signal;HPM_P1;HPM_P2
2022/02/16 00:02:20;;;;;;;1999.90;999.90;;;;;;;6.54;91.02;164141.00;5022949;28;20095;-69
2022/02/16 00:04:46;;;;;;;1999.90;999.90;;;;;;;6.54;91.40;164141.00;5026412;28;20508;-68
2022/02/16 00:07:12;;;;;;;1999.90;999.90;;;;;;;6.47;91.76;164123.09;5014715;28;20077;-68
2022/02/16 00:09:39;;;;;;;1999.90;999.90;;;;;;;6.35;92.39;164091.53;5018511;28;20554;-68
2022/02/16 00:12:07;;;;;;;1999.90;999.90;;;;;;;6.47;91.50;164123.09;5031035;28;20061;-68
2022/02/16 00:14:33;;;;;;;1999.90;999.90;;;;;;;6.24;92.50;164059.94;5028933;28;20187;-68
2022/02/16 00:17:00;;;;;;;1999.90;999.90;;;;;;;6.44;92.67;164113.50;5022073;28;20073;-67
2022/02/16 00:19:27;;;;;;;1999.90;999.90;;;;;;;6.38;92.27;164097.03;5013923;28;20073;-67
2022/02/16 00:21:54;;;;;;;1999.90;999.90;;;;;;;6.43;91.94;164110.75;5024602;28;20076;-68
2022/02/16 00:24:20;;;;;;;1999.90;999.90;;;;;;;6.39;92.26;164101.16;5017264;28;20046;-68
2022/02/16 00:26:47;;;;;;;1999.90;999.90;;;;;;;6.46;91.62;164119.00;5027813;28;20053;-68
2022/02/16 00:29:13;;;;;;;1999.90;999.90;;;;;;;6.84;90.27;164222.03;5022723;28;20100;-68
2022/02/16 00:31:41;;;;;;;1999.90;999.90;;;;;;;6.57;90.90;164147.88;5025539;28;20053;-68
2022/02/16 00:34:08;;;;;;;1999.90;999.90;;;;;;;6.83;89.72;164217.91;5022160;28;20049;-68
2022/02/16 00:36:34;;;;;;;1999.90;999.90;;;;;;;6.90;88.91;164237.16;5022964;28;20063;-68
2022/02/16 00:39:01;;;;;;;1999.90;999.90;;;;;;;7.16;87.74;164307.22;5020796;28;20225;-68
2022/02/16 00:41:28;;;;;;;1999.90;999.90;;;;;;;7.50;86.19;164396.53;5014530;28;20348;-68
2022/02/16 00:43:55;;;;;;;1999.90;999.90;;;;;;;7.29;86.70;164340.19;5018672;28;20053;-68
2022/02/16 00:46:23;;;;;;;1999.90;999.90;;;;;;;7.49;85.82;164393.75;5015113;28;20048;-68
2022/02/16 00:48:50;;;;;;;1999.90;999.90;;;;;;;7.20;87.13;164316.84;5017204;28;20049;-68
2022/02/16 00:51:16;;;;;;;1999.90;999.90;;;;;;;7.17;86.98;164308.59;5025185;28;20088;-68
2022/02/16 00:53:43;;;;;;;1999.90;999.90;;;;;;;7.28;87.00;164338.84;5019430;28;20054;-68
2022/02/16 00:56:09;;;;;;;1999.90;999.90;;;;;;;7.36;86.33;164359.44;5014990;28;20508;-69
2022/02/16 00:58:36;;;;;;;1999.90;999.90;;;;;;;7.27;87.03;164336.06;5027048;28;20416;-69
2022/02/16 01:01:03;;;;;;;1999.90;999.90;;;;;;;7.20;86.47;164316.84;5024613;28;20057;-67
2022/02/16 01:03:29;;;;;;;1999.90;999.90;;;;;;;7.60;84.82;164422.66;5024252;28;20049;-67
2022/02/16 01:05:56;;;;;;;1999.90;999.90;;;;;;;7.51;85.25;164399.31;5016662;28;20104;-67
2022/02/16 01:08:22;;;;;;;1999.90;999.90;;;;;;;7.75;84.23;164465.25;5016470;28;20699;-67
2022/02/16 01:10:50;;;;;;;1999.90;999.90;;;;;;;7.68;84.13;164446.03;5025375;28;20087;-67
2022/02/16 01:13:16;;;;;;;1999.90;999.90;;;;;;;7.00;86.05;164264.63;5019968;28;20196;-68
2022/02/16 01:15:43;;;;;;;1999.90;999.90;;;;;;;7.02;86.79;164268.75;5020456;28;20054;-68
2022/02/16 01:18:09;;;;;;;1999.90;999.90;;;;;;;6.84;87.97;164220.66;5020074;28;20053;-67
2022/02/16 01:20:36;;;;;;;1999.90;999.90;;;;;;;6.75;87.80;164195.94;5018116;28;20442;-67
2022/02/16 01:23:03;;;;;;;1999.90;999.90;;;;;;;6.63;88.79;164164.34;5024128;28;20081;-67
2022/02/16 01:25:29;;;;;;;1999.90;999.90;;;;;;;6.53;89.58;164138.22;5018034;28;20108;-67
2022/02/16 01:27:57;;;;;;;1999.90;999.90;;;;;;;6.80;88.88;164209.66;5015059;28;20128;-67
2022/02/16 01:30:23;;;;;;;1999.90;999.90;;;;;;;6.85;88.64;164223.44;5013386;28;20320;-67
2022/02/16 01:32:50;;;;;;;1999.90;999.90;;;;;;;6.70;88.67;164183.59;5017628;28;20085;-67
2022/02/16 01:35:16;;;;;;;1999.90;999.90;;;;;;;6.25;90.48;164064.09;5018112;28;20085;-67
2022/02/16 01:37:43;;;;;;;1999.90;999.90;;;;;;;6.33;90.66;164086.03;5022204;28;20057;-67
2022/02/16 01:40:12;;;;;;;1999.90;999.90;;;;;;;6.38;90.07;164098.41;5012764;28;20089;-68
2022/02/16 01:42:39;;;;;;;1999.90;999.90;;;;;;;6.44;89.58;164113.50;5022953;28;20398;-67
2022/02/16 01:45:07;;;;;;;1999.90;999.90;;;;;;;5.61;91.61;163892.38;5018549;28;20136;-67
2022/02/16 01:47:37;;;;;;;1999.90;999.90;;;;;;;5.43;92.41;163844.34;5015213;28;20128;-67
2022/02/16 01:50:04;;;;;;;1999.90;999.90;;;;;;;5.65;91.78;163903.38;5013966;28;20053;-67
2022/02/16 01:52:32;;;;;;;1999.90;999.90;;;;;;;5.73;90.67;163925.38;5014459;28;20049;-67
2022/02/16 01:54:59;;;;;;;1999.90;999.90;;;;;;;5.59;91.67;163888.28;5024180;28;20119;-67
2022/02/16 01:57:26;;;;;;;1999.90;999.90;;;;;;;5.54;92.10;163874.56;5018835;28;20053;-68
2022/02/16 01:59:53;;;;;;;1999.90;999.90;;;;;;;5.38;92.21;163830.66;5020260;28;20466;-68
2022/02/16 02:02:20;;;;;;;1999.90;999.90;;;;;;;5.36;92.52;163825.13;5016489;28;20320;-68
2022/02/16 02:04:47;;;;;;;1999.90;999.90;;;;;;;5.37;92.60;163827.88;5025912;28;20115;-68
2022/02/16 02:07:13;;;;;;;1999.90;999.90;;;;;;;5.45;92.38;163851.22;5020350;28;20076;-68
2022/02/16 02:09:40;;;;;;;1999.90;999.90;;;;;;;5.41;92.51;163838.88;5013515;28;20050;-68
2022/02/16 02:12:07;;;;;;;1999.90;999.90;;;;;;;5.41;92.60;163838.88;5020928;28;20450;-68
2022/02/16 02:14:33;;;;;;;1999.90;999.90;;;;;;;5.46;92.78;163854.00;5018381;28;20085;-68
2022/02/16 02:17:00;;;;;;;1999.90;999.90;;;;;;;5.54;92.25;163874.56;5019818;28;20435;-68
2022/02/16 02:19:26;;;;;;;1999.90;999.90;;;;;;;5.60;92.73;163891.03;5022597;28;20407;-68
2022/02/16 02:21:52;;;;;;;1999.90;999.90;;;;;;;5.57;92.31;163882.81;5024117;28;20057;-68
2022/02/16 02:24:19;;;;;;;1999.90;999.90;;;;;;;5.44;93.15;163847.13;5011492;28;20077;-68
2022/02/16 02:26:45;;;;;;;1999.90;999.90;;;;;;;5.75;92.14;163929.50;5017029;28;20085;-68
2022/02/16 02:29:12;;;;;;;1999.90;999.90;;;;;;;5.90;91.16;163970.66;5017572;28;20050;-68
2022/02/16 02:31:38;;;;;;;1999.90;999.90;;;;;;;5.77;92.09;163934.97;5017758;28;20080;-68
2022/02/16 02:34:05;;;;;;;1999.90;999.90;;;;;;;5.93;91.39;163977.53;5013365;28;20053;-68
2022/02/16 02:36:32;;;;;;;1999.90;999.90;;;;;;;5.75;92.60;163930.84;5010806;28;20116;-68
2022/02/16 02:38:59;;;;;;;1999.90;999.90;;;;;;;5.92;92.30;163976.13;5018834;28;20056;-68
2022/02/16 02:41:26;;;;;;;1999.90;999.90;;;;;;;6.01;91.67;163999.53;5018033;28;20423;-68
2022/02/16 02:43:52;;;;;;;1999.90;999.90;;;;;;;5.76;92.14;163932.19;5016145;28;20041;-68
2022/02/16 02:46:20;;;;;;;1999.90;999.90;;;;;;;5.55;93.61;163877.34;5017740;28;20045;-68
2022/02/16 02:48:46;;;;;;;1999.90;999.90;;;;;;;5.59;93.66;163886.91;5024062;28;20050;-68
2022/02/16 02:51:14;;;;;;;1999.90;999.90;;;;;;;5.47;94.94;163856.69;5018740;28;20045;-68
2022/02/16 02:53:42;;;;;;;1999.90;999.90;;;;;;;5.53;95.11;163870.47;5021028;28;20057;-67
2022/02/16 02:56:08;;;;;;;1999.90;999.90;;;;;;;5.64;94.53;163902.03;5017391;28;20072;-67
2022/02/16 02:58:36;;;;;;;1999.90;999.90;;;;;;;5.39;95.48;163833.38;5023847;28;20496;-67
2022/02/16 03:01:03;;;;;;;1999.90;999.90;;;;;;;5.53;95.24;163870.47;5018107;28;20085;-67
2022/02/16 03:03:32;;;;;;;1999.90;999.90;;;;;;;5.53;95.32;163870.47;5021237;28;20080;-67
2022/02/16 03:05:58;;;;;;;1999.90;999.90;;;;;;;5.45;95.81;163849.88;5014296;28;20088;-68
2022/02/16 03:08:25;;;;;;;1999.90;999.90;;;;;;;5.59;95.52;163888.28;5012432;28;20392;-67
2022/02/16 03:10:52;;;;;;;1999.90;999.90;;;;;;;5.79;94.73;163941.84;5017616;28;20081;-67
2022/02/16 03:13:21;;;;;;;1999.90;999.90;;;;;;;5.62;95.62;163895.16;5021779;28;20049;-67
2022/02/16 03:15:49;;;;;;;1999.90;999.90;;;;;;;5.73;94.82;163923.97;5020235;28;20343;-67
2022/02/16 03:18:16;;;;;;;1999.90;999.90;;;;;;;5.81;94.44;163947.31;5015606;28;20099;-67
2022/02/16 03:20:43;;;;;;;1999.90;999.90;;;;;;;5.72;95.04;163922.59;5012195;28;20073;-67
2022/02/16 03:23:09;;;;;;;1999.90;999.90;;;;;;;5.42;96.61;163841.66;5015720;28;20045;-67
2022/02/16 03:25:36;;;;;;;1999.90;999.90;;;;;;;5.75;95.31;163929.50;5020413;28;20054;-67
2022/02/16 03:28:05;;;;;;;1999.90;999.90;;;;;;;5.71;95.46;163919.84;5021026;28;20351;-67
2022/02/16 03:30:32;;;;;;;1999.90;999.90;;;;;;;5.67;95.48;163907.50;5013823;28;20049;-67
2022/02/16 03:33:18;;;;;;;1999.90;999.90;;;;;;;5.86;95.02;163958.31;5023439;28;20057;-67
2022/02/16 03:35:44;;;;;;;1999.90;999.90;;;;;;;5.75;95.93;163930.84;5019859;28;20081;-67
2022/02/16 03:38:11;;;;;;;1999.90;999.90;;;;;;;6.17;94.10;164042.09;5018868;28;21501;-67
2022/02/16 03:40:37;;;;;;;1999.90;999.90;;;;;;;6.39;92.57;164099.81;5022170;28;20386;-67
2022/02/16 03:43:04;;;;;;;1999.90;999.90;;;;;;;5.90;94.25;163969.28;5018904;28;20073;-67
2022/02/16 03:45:30;;;;;;;1999.90;999.90;;;;;;;6.18;93.13;164044.88;5028321;28;20077;-67
2022/02/16 03:47:57;;;;;;;1999.90;999.90;;;;;;;6.41;92.91;164105.28;5023643;28;20084;-67
2022/02/16 03:50:25;;;;;;;1999.90;999.90;;;;;;;6.69;91.28;164180.81;5023897;28;20264;-67
2022/02/16 03:52:52;;;;;;;1999.90;999.90;;;;;;;7.00;90.25;164264.63;5025637;28;20108;-67
2022/02/16 03:55:19;;;;;;;1999.90;999.90;;;;;;;7.27;88.95;164334.72;5025299;28;20082;-67
2022/02/16 03:57:45;;;;;;;1999.90;999.90;;;;;;;7.34;87.75;164355.31;5025986;28;20068;-67
2022/02/16 04:00:13;;;;;;;1999.90;999.90;;;;;;;7.29;88.46;164341.56;5020366;28;20077;-67
2022/02/16 04:02:41;;;;;;;1999.90;999.90;;;;;;;6.99;89.75;164260.50;5016020;28;20054;-67
2022/02/16 04:05:09;;;;;;;1999.90;999.90;;;;;;;6.94;90.23;164248.16;5015444;28;20408;-67
2022/02/16 04:07:36;;;;;;;1999.90;999.90;;;;;;;6.37;92.41;164095.63;5018440;28;20069;-67
2022/02/16 04:10:03;;;;;;;1999.90;999.90;;;;;;;6.73;91.89;164190.41;5014189;28;20142;-67
2022/02/16 04:12:31;;;;;;;1999.90;999.90;;;;;;;6.73;91.66;164191.81;5018073;28;20050;-67
2022/02/16 04:14:57;;;;;;;1999.90;999.90;;;;;;;7.12;90.27;164294.88;5014381;28;20410;-67
2022/02/16 04:17:24;;;;;;;1999.90;999.90;;;;;;;6.61;92.21;164160.22;5014249;28;20466;-67
2022/02/16 04:19:50;;;;;;;1999.90;999.90;;;;;;;6.44;93.25;164113.50;5019280;28;20103;-67
2022/02/16 04:22:17;;;;;;;1999.90;999.90;;;;;;;6.61;92.33;164160.22;5015261;28;20104;-67
2022/02/16 04:24:45;;;;;;;1999.90;999.90;;;;;;;6.16;94.14;164039.34;5016423;28;20077;-67
2022/02/16 04:27:11;;;;;;;1999.90;999.90;;;;;;;6.33;94.13;164086.03;5013922;28;20054;-67
2022/02/16 04:29:38;;;;;;;1999.90;999.90;;;;;;;6.55;93.06;164143.75;5022906;28;20107;-67
2022/02/16 04:32:05;;;;;;;1999.90;999.90;;;;;;;6.47;93.52;164123.09;5019661;28;20053;-67
2022/02/16 04:34:33;;;;;;;1999.90;999.90;;;;;;;6.73;92.79;164190.41;5015775;28;20050;-68
2022/02/16 04:37:00;;;;;;;1999.90;999.90;;;;;;;6.35;93.89;164091.53;5014128;28;20037;-67
2022/02/16 04:39:27;;;;;;;1999.90;999.90;;;;;;;6.27;94.68;164068.22;5015753;28;20108;-68
2022/02/16 04:41:54;;;;;;;1999.90;999.90;;;;;;;6.23;94.90;164058.56;5011202;28;20058;-67
2022/02/16 04:44:21;;;;;;;1999.90;999.90;;;;;;;5.81;97.33;163945.94;5021959;28;20049;-68
2022/02/16 04:46:47;;;;;;;1999.90;999.90;;;;;;;6.15;95.65;164036.63;5016174;28;20135;-67
2022/02/16 04:49:14;;;;;;;1999.90;999.90;;;;;;;6.52;93.98;164136.88;5013792;28;20077;-67
2022/02/16 04:51:40;;;;;;;1999.90;999.90;;;;;;;6.46;93.97;164119.00;5017757;28;20077;-67
2022/02/16 04:54:07;;;;;;;1999.90;999.90;;;;;;;6.46;94.35;164120.41;5018531;28;20045;-67
2022/02/16 04:56:33;;;;;;;1999.90;999.90;;;;;;;6.42;93.97;164108.03;5016572;28;20050;-67
2022/02/16 04:59:00;;;;;;;1999.90;999.90;;;;;;;6.01;95.99;163998.16;5021746;28;20076;-67
2022/02/16 05:01:27;;;;;;;1999.90;999.90;;;;;;;5.74;96.71;163926.72;5015612;28;20116;-67
2022/02/16 05:03:54;;;;;;;1999.90;999.90;;;;;;;5.73;97.61;163925.38;5021628;28;20088;-67
2022/02/16 05:06:20;;;;;;;1999.90;999.90;;;;;;;5.60;97.56;163891.03;5017085;28;20374;-67
2022/02/16 05:08:49;;;;;;;1999.90;999.90;;;;;;;5.92;96.32;163976.13;5021958;28;20068;-67
2022/02/16 05:11:16;;;;;;;1999.90;999.90;;;;;;;5.75;96.94;163930.84;5025098;28;20073;-67
2022/02/16 05:13:43;;;;;;;1999.90;999.90;;;;;;;5.87;96.04;163961.06;5021794;28;20092;-67
2022/02/16 05:16:09;;;;;;;1999.90;999.90;;;;;;;5.65;97.28;163904.75;5019614;28;20097;-67
2022/02/16 05:18:35;;;;;;;1999.90;999.90;;;;;;;5.65;97.34;163903.38;5022602;28;20626;-67
2022/02/16 05:21:02;;;;;;;1999.90;999.90;;;;;;;5.78;96.91;163937.72;5021136;28;20387;-67
2022/02/16 05:23:29;;;;;;;1999.90;999.90;;;;;;;5.79;96.53;163941.84;5017317;28;20303;-67
2022/02/16 05:25:57;;;;;;;1999.90;999.90;;;;;;;5.81;96.55;163945.94;5018785;28;20049;-67
2022/02/16 05:28:24;;;;;;;1999.90;999.90;;;;;;;5.57;97.69;163882.81;5014135;28;20194;-68
2022/02/16 05:30:50;;;;;;;1999.90;999.90;;;;;;;6.04;96.07;164007.75;5015482;28;20119;-67
2022/02/16 05:33:17;;;;;;;1999.90;999.90;;;;;;;5.75;96.78;163929.50;5014780;28;20057;-67
2022/02/16 05:35:45;;;;;;;1999.90;999.90;;;;;;;5.68;97.13;163910.25;5015963;28;20100;-67
2022/02/16 05:38:12;;;;;;;1999.90;999.90;;;;;;;5.50;98.29;163863.56;5018575;28;20052;-67
2022/02/16 05:40:38;;;;;;;1999.90;999.90;;;;;;;5.69;97.21;163913.03;5012013;28;20139;-67
2022/02/16 05:43:05;;;;;;;1999.90;999.90;;;;;;;5.65;96.49;163904.75;5022086;28;20053;-67
2022/02/16 05:45:31;;;;;;;1999.90;999.90;;;;;;;5.28;97.94;163805.97;5014839;28;20057;-68
2022/02/16 05:47:58;;;;;;;1999.90;999.90;;;;;;;5.28;98.74;163805.97;5023499;28;20091;-67
2022/02/16 05:50:25;;;;;;;1999.90;999.90;;;;;;;5.58;97.50;163884.16;5021634;28;20528;-67
2022/02/16 05:52:51;;;;;;;1999.90;999.90;;;;;;;5.47;97.33;163855.34;5023660;28;20100;-67
2022/02/16 05:55:18;;;;;;;1999.90;999.90;;;;;;;5.38;97.65;163830.66;5025654;28;20049;-67
2022/02/16 05:57:44;;;;;;;1999.90;999.90;;;;;;;5.65;96.70;163904.75;5021664;28;20045;-67
2022/02/16 06:00:12;;;;;;;1999.90;999.90;;;;;;;5.46;96.91;163854.00;5015051;28;20108;-67
2022/02/16 06:02:38;;;;;;;1999.90;999.90;;;;;;;5.37;97.16;163827.88;5017273;28;20073;-67
2022/02/16 06:05:05;;;;;;;1999.90;999.90;;;;;;;5.62;95.72;163895.16;5018278;28;20073;-67
2022/02/16 06:07:32;;;;;;;1999.90;999.90;;;;;;;5.81;94.69;163945.94;5021791;28;20136;-67
2022/02/16 06:09:58;;;;;;;1999.90;999.90;;;;;;;5.85;94.06;163955.53;5022909;28;20472;-67
2022/02/16 06:12:26;;;;;;;1999.90;999.90;;;;;;;6.04;92.89;164006.41;5026879;28;20063;-67
2022/02/16 06:14:52;;;;;;;1999.90;999.90;;;;;;;6.04;92.83;164007.75;5023043;28;20192;-67
2022/02/16 06:17:18;;;;;;;1999.90;999.90;;;;;;;5.85;93.44;163955.53;5015272;28;20077;-67
2022/02/16 06:19:45;;;;;;;1999.90;999.90;;;;;;;5.90;93.11;163970.66;5020858;28;20505;-67
2022/02/16 06:22:11;;;;;;;1999.90;999.90;;;;;;;6.06;92.75;164013.28;5014891;28;20083;-67
2022/02/16 06:24:38;;;;;;;1999.90;999.90;;;;;;;6.17;92.02;164043.47;5016956;28;20057;-67
2022/02/16 06:27:06;;;;;;;1999.90;999.90;;;;;;;6.24;91.77;164061.34;5024519;28;20248;-67
2022/02/16 06:29:33;;;;;;;1999.90;999.90;;;;;;;6.06;92.31;164011.88;5016186;28;20405;-67
2022/02/16 06:31:59;;;;;;;1999.90;999.90;;;;;;;6.15;92.10;164036.63;5018301;28;20045;-67
2022/02/16 06:34:26;;;;;;;1999.90;999.90;;;;;;;5.86;93.28;163959.66;5016221;28;20087;-67
2022/02/16 06:36:52;;;;;;;1999.90;999.90;;;;;;;6.25;91.71;164064.09;5026190;28;20400;-68
2022/02/16 06:39:19;;;;;;;1999.90;999.90;;;;;;;6.12;91.66;164028.41;5020937;28;20049;-67
2022/02/16 06:41:45;;;;;;;1999.90;999.90;;;;;;;5.92;93.03;163976.13;5024451;28;20085;-67
2022/02/16 06:44:11;;;;;;;1999.90;999.90;;;;;;;5.99;92.69;163995.41;5013310;28;20081;-67
2022/02/16 06:46:38;;;;;;;1999.90;999.90;;;;;;;6.06;92.15;164011.88;5021805;28;20451;-67
2022/02/16 06:49:04;;;;;;;1999.90;999.90;;;;;;;6.28;91.59;164070.94;5024225;28;20459;-67
2022/02/16 06:51:31;;;;;;;1999.90;999.90;;;;;;;5.98;93.37;163991.28;5023393;28;20351;-67
2022/02/16 06:53:57;;;;;;;1999.90;999.90;;;;;;;6.06;93.38;164011.88;5016931;28;20077;-67
2022/02/16 06:56:25;;;;;;;1999.90;999.90;;;;;;;6.21;93.08;164051.69;5024786;28;20092;-68
2022/02/16 06:58:51;;;;;;;1999.90;999.90;;;;;;;6.28;92.13;164070.94;5021162;28;20160;-68
2022/02/16 07:01:17;;;;;;;1999.90;999.90;;;;;;;6.14;93.39;164033.88;5021998;28;20100;-68
2022/02/16 07:03:48;;;;;;;1999.90;999.90;;;;;;;5.84;94.62;163952.84;5028752;28;20057;-68
2022/02/16 07:06:17;;;;;;;1999.90;999.90;;;;;;;6.17;93.90;164042.09;5018536;28;20439;-68
2022/02/16 07:08:43;;;;;;;1999.90;999.90;;;;;;;6.45;92.25;164116.28;5025908;28;20354;-68
2022/02/16 07:11:10;;;;;;;1999.90;999.90;;;;;;;6.45;92.67;164116.28;5022697;28;20358;-68
2022/02/16 07:13:36;;;;;;;1999.90;999.90;;;;;;;6.37;92.66;164094.28;5012848;28;20228;-69
2022/02/16 07:16:03;;;;;;;1999.90;999.90;;;;;;;6.42;93.15;164108.03;5009875;28;20486;-68
2022/02/16 07:18:32;;;;;;;1999.90;999.90;;;;;;;6.15;93.14;164038.00;5017054;28;23126;-68
2022/02/16 07:20:58;;;;;;;1999.90;999.90;;;;;;;6.26;93.63;164066.81;5020120;28;20053;-68
2022/02/16 07:23:25;;;;;;;1999.90;999.90;;;;;;;6.24;93.23;164059.94;5018639;28;20088;-69
2022/02/16 07:25:51;;;;;;;1999.90;999.90;;;;;;;6.03;94.70;164003.66;5015028;28;20127;-69
2022/02/16 07:28:18;;;;;;;1999.90;999.90;;;;;;;5.91;94.42;163972.00;5014798;28;20084;-69
2022/02/16 07:30:46;;;;;;;1999.90;999.90;;;;;;;5.42;97.22;163841.66;5012162;28;20462;-69
2022/02/16 07:33:13;;;;;;;1999.90;999.90;;;;;;;5.46;97.21;163852.59;5022855;28;20454;-69
2022/02/16 07:35:39;;;;;;;1999.90;999.90;;;;;;;5.87;96.34;163961.06;5015610;28;20085;-69
2022/02/16 07:38:05;;;;;;;1999.90;999.90;;;;;;;6.22;94.43;164054.47;5023053;28;20085;-69
2022/02/16 07:40:32;;;;;;;1999.90;999.90;;;;;;;6.04;94.84;164006.41;5019510;28;20049;-69
2022/02/16 07:42:59;;;;;;;1999.90;999.90;;;;;;;6.01;95.00;163998.16;5020034;28;20053;-69
2022/02/16 07:45:27;;;;;;;1999.90;999.90;;;;;;;5.91;95.06;163973.41;5020324;28;20052;-69
2022/02/16 07:47:55;;;;;;;1999.90;999.90;;;;;;;5.98;95.37;163992.69;5025098;28;20327;-67
2022/02/16 07:50:22;;;;;;;1999.90;999.90;;;;;;;6.25;93.86;164064.09;5024127;28;20049;-67
2022/02/16 07:52:48;;;;;;;1999.90;999.90;;;;;;;6.12;93.86;164028.41;5012323;28;20058;-67
2022/02/16 07:55:15;;;;;;;1999.90;999.90;;;;;;;6.14;93.68;164033.88;5016143;28;20081;-68
2022/02/16 07:57:41;;;;;;;1999.90;999.90;;;;;;;5.69;94.87;163914.38;5018259;28;20088;-67
2022/02/16 08:00:08;;;;;;;1999.90;999.90;;;;;;;5.68;95.07;163910.25;5020009;28;20328;-67
2022/02/16 08:02:35;;;;;;;1999.90;999.90;;;;;;;6.01;94.18;163999.53;5013534;28;20107;-67
2022/02/16 08:05:06;;;;;;;1999.90;999.90;;;;;;;5.91;93.54;163973.41;5018670;28;20060;-67
2022/02/16 08:07:35;;;;;;;1999.90;999.90;;;;;;;6.16;92.89;164040.75;5011393;28;20068;-68
2022/02/16 08:10:02;;;;;;;1999.90;999.90;;;;;;;6.44;92.06;164114.88;5010952;28;20081;-67
2022/02/16 08:12:29;;;;;;;1999.90;999.90;;;;;;;6.50;90.84;164130.00;5011544;28;20462;-68
2022/02/16 08:14:55;;;;;;;1999.90;999.90;;;;;;;6.85;88.49;164223.44;5014075;28;20123;-69
2022/02/16 08:17:22;;;;;;;1999.90;999.90;;;;;;;6.70;89.25;164184.94;5017551;28;20046;-67
2022/02/16 08:19:49;;;;;;;1999.90;999.90;;;;;;;6.91;88.07;164239.91;5015807;28;20050;-68
2022/02/16 08:22:16;;;;;;;1999.90;999.90;;;;;;;6.57;88.39;164149.22;5009740;28;20093;-68
2022/02/16 08:24:42;;;;;;;1999.90;999.90;;;;;;;6.68;87.36;164178.06;5015090;28;20509;-68
2022/02/16 08:27:09;;;;;;;1999.90;999.90;;;;;;;6.84;86.90;164220.66;5017393;28;20054;-68
2022/02/16 08:29:35;;;;;;;1999.90;999.90;;;;;;;6.95;87.09;164249.50;5025790;28;20131;-67
2022/02/16 08:32:02;;;;;;;1999.90;999.90;;;;;;;6.98;86.95;164257.75;5018322;28;20212;-67
2022/02/16 08:34:29;;;;;;;1999.90;999.90;;;;;;;7.46;85.17;164385.53;5015383;28;20078;-68
2022/02/16 08:36:55;;;;;;;1999.90;999.90;;;;;;;7.54;85.08;164407.53;5022331;28;20084;-68
2022/02/16 08:39:26;;;;;;;1999.90;999.90;;;;;;;7.25;85.05;164329.19;5021131;28;20046;-68
2022/02/16 08:41:54;;;;;;;1999.90;999.90;;;;;;;7.37;85.46;164362.22;5027360;28;20041;-68
2022/02/16 08:44:21;;;;;;;1999.90;999.90;;;;;;;6.81;86.74;164212.44;5021449;28;20121;-69
2022/02/16 08:46:47;;;;;;;1999.90;999.90;;;;;;;6.95;86.99;164250.91;5021182;28;20399;-68
2022/02/16 08:49:15;;;;;;;1999.90;999.90;;;;;;;7.25;85.90;164329.19;5021283;28;20088;-68
2022/02/16 08:51:42;;;;;;;1999.90;999.90;;;;;;;6.91;86.76;164239.91;5026940;28;20057;-69
2022/02/16 08:54:08;;;;;;;1999.90;999.90;;;;;;;7.20;85.79;164316.84;5017455;28;20049;-69
2022/02/16 08:56:35;;;;;;;1999.90;999.90;;;;;;;7.33;85.26;164351.19;5014896;28;20060;-69
2022/02/16 08:59:03;;;;;;;1999.90;999.90;;;;;;;7.43;84.62;164377.28;5027102;28;20042;-69
2022/02/16 09:01:33;;;;;;;1999.90;999.90;;;;;;;7.52;83.69;164402.06;5024667;28;20049;-69
2022/02/16 09:04:02;;;;;;;1999.90;999.90;;;;;;;7.38;84.88;164364.91;5019359;28;20054;-68
2022/02/16 09:06:29;;;;;;;1999.90;999.90;;;;;;;7.17;85.84;164308.59;5019793;28;20442;-69
2022/02/16 09:08:56;;;;;;;1999.90;999.90;;;;;;;7.91;83.47;164506.53;5016031;28;20505;-69
2022/02/16 09:11:24;;;;;;;1999.90;999.90;;;;;;;7.79;83.59;164473.53;5025399;28;20054;-69
2022/02/16 09:13:51;;;;;;;1999.90;999.90;;;;;;;7.84;83.58;164487.25;5021610;28;20050;-68
2022/02/16 09:16:17;;;;;;;1999.90;999.90;;;;;;;7.89;82.47;164501.00;5015710;28;20054;-69
2022/02/16 09:18:46;;;;;;;1999.90;999.90;;;;;;;7.86;82.55;164492.75;5023620;28;20435;-68
2022/02/16 09:21:13;;;;;;;1999.90;999.90;;;;;;;8.01;83.47;164534.03;5020533;28;20498;-69
2022/02/16 09:23:41;;;;;;;1999.90;999.90;;;;;;;8.30;81.84;164611.00;5022404;28;20073;-68
2022/02/16 09:26:08;;;;;;;1999.90;999.90;;;;;;;7.99;80.93;164527.13;5022690;28;20100;-69
2022/02/16 09:28:36;;;;;;;1999.90;999.90;;;;;;;7.90;82.76;164503.75;5015826;28;20088;-68
2022/02/16 09:31:04;;;;;;;1999.90;999.90;;;;;;;7.99;82.21;164527.13;5014209;28;20097;-68
2022/02/16 09:33:30;;;;;;;1999.90;999.90;;;;;;;7.88;81.99;164499.63;5020726;28;20072;-68
2022/02/16 09:35:57;;;;;;;1999.90;999.90;;;;;;;8.37;80.36;164628.91;5021992;28;20060;-68
2022/02/16 09:38:23;;;;;;;1999.90;999.90;;;;;;;8.38;80.19;164633.03;5023830;28;20501;-67
2022/02/16 09:40:53;;;;;;;1999.90;999.90;;;;;;;8.67;79.17;164710.09;5020748;28;20085;-68
2022/02/16 09:43:22;;;;;;;1999.90;999.90;;;;;;;8.34;79.08;164622.00;5029300;28;20126;-68
2022/02/16 09:45:55;;;;;;;1999.90;999.90;;;;;;;7.95;81.56;164517.53;5025042;28;20442;-68
2022/02/16 09:48:23;;;;;;;1999.90;999.90;;;;;;;7.90;81.78;164503.75;5015342;28;20054;-68
2022/02/16 09:50:50;;;;;;;1999.90;999.90;;;;;;;8.17;81.17;164575.25;5018935;28;20099;-69
2022/02/16 09:53:28;;;;;;;1999.90;999.90;;;;;;;8.32;80.08;164616.53;5020343;28;20049;-69
2022/02/16 09:55:58;;;;;;;1999.90;999.90;;;;;;;7.99;79.53;164528.50;5024908;28;20085;-69
2022/02/16 09:58:24;;;;;;;1999.90;999.90;;;;;;;7.72;80.67;164457.00;5024928;28;20104;-69
2022/02/16 10:01:05;;;;;;;1999.90;999.90;;;;;;;8.07;79.91;164549.16;5018527;28;20103;-68
2022/02/16 10:03:32;;;;;;;1999.90;999.90;;;;;;;7.83;79.82;164484.50;5018792;28;20054;-67
2022/02/16 10:06:00;;;;;;;1999.90;999.90;;;;;;;8.00;79.44;164529.91;5020719;28;20057;-67
2022/02/16 10:08:47;;;;;;;1999.90;999.90;;;;;;;7.62;80.66;164429.50;5017885;28;20038;-67
2022/02/16 10:11:15;;;;;;;1999.90;999.90;;;;;;;7.99;79.55;164528.50;5013765;28;20132;-67
2022/02/16 10:13:43;;;;;;;1999.90;999.90;;;;;;;8.49;78.85;164661.94;5021970;28;20825;-68
2022/02/16 10:16:10;;;;;;;1999.90;999.90;;;;;;;8.19;78.21;164580.78;5016398;28;20053;-70
2022/02/16 10:18:57;;;;;;;1999.90;999.90;;;;;;;8.00;79.41;164531.25;5021289;28;20054;-69
2022/02/16 10:21:24;;;;;;;1999.90;999.90;;;;;;;8.27;79.37;164604.13;5023699;28;20088;-69
2022/02/16 10:23:54;;;;;;;1999.90;999.90;;;;;;;8.73;76.58;164726.59;5012608;28;20073;-68
2022/02/16 10:26:48;;;;;;;1999.90;999.90;;;;;;;9.42;74.92;164909.56;5018952;28;20053;-68
2022/02/16 10:29:23;;;;;;;1999.90;999.90;;;;;;;8.71;75.44;164721.09;5019000;28;20384;-68
2022/02/16 10:31:50;;;;;;;1999.90;999.90;;;;;;;8.53;74.83;164672.97;5016967;28;20073;-68
2022/02/16 10:34:17;;;;;;;1999.90;999.90;;;;;;;8.98;74.30;164792.63;5018362;28;20071;-67
2022/02/16 10:36:46;;;;;;;1999.90;999.90;;;;;;;9.25;73.41;164865.53;5025329;28;20084;-67
2022/02/16 10:39:26;;;;;;;1999.90;999.90;;;;;;;9.06;73.30;164814.63;5020844;28;20438;-67
2022/02/16 10:41:54;;;;;;;1999.90;999.90;;;;;;;8.38;74.24;164631.63;5017063;28;20439;-68
2022/02/16 10:44:22;;;;;;;1999.90;999.90;;;;;;;8.33;74.52;164617.91;5013587;28;20042;-69
2022/02/16 10:47:04;;;;;;;1999.90;999.90;;;;;;;8.57;74.21;164683.94;5015099;28;20132;-68
2022/02/16 10:49:43;;;;;;;1999.90;999.90;;;;;;;9.14;72.41;164835.25;5017925;28;20077;-68
2022/02/16 10:52:16;;;;;;;1999.90;999.90;;;;;;;9.10;71.58;164825.63;5021580;28;20161;-68
2022/02/16 10:55:00;;;;;;;1999.90;999.90;;;;;;;9.73;71.49;164993.53;5019675;28;20050;-69
2022/02/16 10:57:27;;;;;;;1999.90;999.90;;;;;;;10.14;69.79;165102.31;5020244;28;20447;-68